Time;durP1;ratioP1;P1;durP2;ratioP2;P2;SDS_P1;SDS_P2;PMS_P1;PMS_P2;Temp;Humidity;BMP_temperature;BMP_pressure;BME280_temperature;BME280_humidity;BME280_pressure;Samples;Min_cycle;Max_cycle;Signal;HPM_P1;HPM_P2
2022/01/19 00:00:54;;;;;;;;;30.25;27.00;;;;;9.65;59.06;102542.47;2080884;28;48156;-56
2022/01/19 00:01:54;;;;;;;;;32.50;28.75;;;;;9.62;59.01;102537.16;2071849;28;46896;-54
2022/01/19 00:02:55;;;;;;;;;32.75;31.00;;;;;9.62;59.31;102539.78;2071805;28;48091;-55
2022/01/19 00:03:56;;;;;;;;;27.25;27.25;;;;;9.63;59.11;102539.81;2080574;28;47655;-56
2022/01/19 00:04:56;;;;;;;;;28.00;26.50;;;;;9.63;59.22;102538.91;2080741;28;45489;-58
2022/01/19 00:05:57;;;;;;;;;26.00;23.00;;;;;9.62;59.30;102547.75;2071767;28;47830;-57
2022/01/19 00:06:57;;;;;;;;;27.20;26.20;;;;;9.62;59.34;102538.03;2071769;28;48282;-56
2022/01/19 00:07:58;;;;;;;;;25.25;24.00;;;;;9.61;59.33;102546.84;2080736;28;47062;-56
2022/01/19 00:08:59;;;;;;;;;24.00;23.75;;;;;9.61;59.31;102541.56;2080699;28;48190;-57
2022/01/19 00:10:05;;;;;;;;;31.60;28.60;;;;;9.61;59.46;102535.38;2083152;28;47377;-54
2022/01/19 00:11:05;;;;;;;;;29.60;24.80;;;;;9.60;59.34;102542.44;2081412;28;47620;-57
2022/01/19 00:12:06;;;;;;;;;28.00;28.00;;;;;9.61;59.36;102544.22;2088949;28;47942;-56
2022/01/19 00:13:06;;;;;;;;;27.75;26.25;;;;;9.60;59.18;102542.44;2088734;28;48040;-55
2022/01/19 00:14:07;;;;;;;;;22.25;18.75;;;;;9.60;59.11;102541.53;2088888;28;46208;-57
2022/01/19 00:15:08;;;;;;;;;29.50;28.50;;;;;9.61;59.11;102535.38;2088830;28;48125;-54
2022/01/19 00:16:09;;;;;;;;;26.00;26.00;;;;;9.59;59.17;102535.34;2088893;28;47483;-55
2022/01/19 00:17:10;;;;;;;;;30.75;30.00;;;;;9.60;59.16;102534.47;2088802;28;47224;-56
2022/01/19 00:18:10;;;;;;;;;32.25;29.00;;;;;9.59;59.24;102530.06;2088541;28;48203;-55
2022/01/19 00:19:11;;;;;;;;;33.50;28.00;;;;;9.59;59.15;102523.88;2088716;28;48194;-54
2022/01/19 00:20:11;;;;;;;;;29.75;27.50;;;;;9.58;59.23;102520.31;2088907;28;47414;-55
2022/01/19 00:21:12;;;;;;;;;25.25;24.50;;;;;9.58;59.14;102512.38;2088740;28;47396;-55
2022/01/19 00:22:12;;;;;;;;;31.50;28.75;;;;;9.57;59.25;102501.75;2088869;28;47043;-55
2022/01/19 00:23:15;;;;;;;;;24.25;24.25;;;;;9.56;59.28;102494.69;2088498;28;46110;-53
2022/01/19 00:24:16;;;;;;;;;29.60;28.20;;;;;9.55;59.36;102488.50;2085522;28;48039;-56
2022/01/19 00:25:17;;;;;;;;;24.50;24.50;;;;;9.56;59.29;102486.72;2083204;28;47385;-53
2022/01/19 00:26:18;;;;;;;;;29.00;26.80;;;;;9.56;59.25;102492.03;2088796;28;47248;-55
2022/01/19 00:27:18;;;;;;;;;26.75;24.00;;;;;9.56;59.24;102484.97;2088019;28;48163;-58
2022/01/19 00:28:20;;;;;;;;;23.50;21.75;;;;;9.56;59.10;102484.09;2080668;28;46171;-56
2022/01/19 00:29:20;;;;;;;;;23.00;21.40;;;;;9.56;59.31;102487.63;2080099;28;48349;-56
2022/01/19 00:30:21;;;;;;;;;30.25;27.50;;;;;9.56;59.20;102477.03;2080414;28;47085;-55
2022/01/19 00:31:21;;;;;;;;;26.25;26.25;;;;;9.55;59.21;102480.53;2079750;28;48088;-57
2022/01/19 00:32:24;;;;;;;;;22.00;21.50;;;;;9.55;59.04;102469.06;2079685;28;47182;-55
2022/01/19 00:33:24;;;;;;;;;22.40;22.40;;;;;9.54;59.17;102459.31;2080188;28;47390;-55
2022/01/19 00:34:25;;;;;;;;;27.00;26.00;;;;;9.53;59.02;102457.53;2080432;28;47415;-56
2022/01/19 00:35:25;;;;;;;;;21.50;21.00;;;;;9.52;59.36;102455.75;2080318;28;47218;-54
2022/01/19 00:36:26;;;;;;;;;22.00;20.75;;;;;9.51;58.87;102452.22;2080278;28;47342;-55
2022/01/19 00:37:27;;;;;;;;;23.40;23.40;;;;;9.50;58.86;102457.50;2080167;28;48243;-54
2022/01/19 00:38:28;;;;;;;;;26.75;23.75;;;;;9.49;59.13;102458.38;2080193;28;47784;-55
2022/01/19 00:39:31;;;;;;;;;25.25;23.50;;;;;9.48;59.09;102453.94;2080172;28;47711;-57
2022/01/19 00:40:31;;;;;;;;;24.20;23.80;;;;;9.47;59.28;102460.13;2080368;28;47149;-53
2022/01/19 00:41:32;;;;;;;;;24.75;23.50;;;;;9.46;59.31;102463.66;2080482;28;47461;-56
2022/01/19 00:42:32;;;;;;;;;23.50;23.00;;;;;9.45;59.28;102465.41;2080361;28;47158;-55
2022/01/19 00:43:36;;;;;;;;;26.50;25.50;;;;;9.44;59.33;102471.59;2080108;28;47375;-55
2022/01/19 00:44:38;;;;;;;;;26.60;23.60;;;;;9.43;59.21;102480.41;2080188;28;46785;-53
2022/01/19 00:45:39;;;;;;;;;23.60;23.20;;;;;9.42;59.56;102482.16;2080253;28;47438;-55
2022/01/19 00:46:39;;;;;;;;;23.50;22.25;;;;;9.42;59.07;102490.13;2080421;28;48195;-53
2022/01/19 00:47:41;;;;;;;;;27.00;23.75;;;;;9.43;59.18;102478.66;2080497;28;47884;-53
2022/01/19 00:48:41;;;;;;;;;26.60;26.00;;;;;9.43;59.30;102483.06;2080021;28;47286;-55
2022/01/19 00:49:43;;;;;;;;;23.25;21.50;;;;;9.43;59.27;102483.94;2080462;28;47206;-55
2022/01/19 00:50:43;;;;;;;;;24.20;24.20;;;;;9.43;59.21;102483.06;2080411;28;48108;-55
2022/01/19 00:51:44;;;;;;;;;22.50;21.50;;;;;9.42;59.29;102482.16;2084961;28;47469;-53
2022/01/19 00:52:44;;;;;;;;;27.00;26.25;;;;;9.43;59.03;102488.34;2080315;28;48127;-57
2022/01/19 00:53:45;;;;;;;;;20.25;20.25;;;;;9.42;59.24;102483.94;2080228;28;46025;-54
2022/01/19 00:54:45;;;;;;;;;23.50;23.50;;;;;9.42;59.32;102486.59;2080421;28;47141;-55
2022/01/19 00:55:46;;;;;;;;;27.50;24.25;;;;;9.41;59.41;102491.00;2079743;28;45517;-53
2022/01/19 00:56:46;;;;;;;;;24.00;22.25;;;;;9.42;59.30;102494.53;2079606;28;47991;-52
2022/01/19 00:57:47;;;;;;;;;23.25;23.25;;;;;9.41;59.15;102498.06;2080266;28;47377;-54
2022/01/19 00:58:47;;;;;;;;;19.20;18.60;;;;;9.41;59.25;102492.75;2080215;28;47090;-54
2022/01/19 00:59:48;;;;;;;;;22.25;18.75;;;;;9.39;59.45;102492.72;2079959;28;47150;-55
2022/01/19 01:00:48;;;;;;;;;28.25;25.75;;;;;9.40;59.35;102485.66;2080426;28;48254;-55
2022/01/19 01:01:49;;;;;;;;;24.00;23.50;;;;;9.40;59.42;102485.66;2085976;28;47947;-54
2022/01/19 01:02:49;;;;;;;;;24.00;23.50;;;;;9.38;59.40;102474.16;2088465;28;47156;-54
2022/01/19 01:03:50;;;;;;;;;25.25;23.50;;;;;9.39;59.35;102479.47;2088644;28;46278;-57
2022/01/19 01:04:50;;;;;;;;;24.00;23.25;;;;;9.39;59.16;102475.91;2088499;28;48239;-55
2022/01/19 01:05:51;;;;;;;;;24.00;23.75;;;;;9.39;59.30;102475.91;2088535;28;48062;-54
2022/01/19 01:06:51;;;;;;;;;21.25;19.25;;;;;9.39;59.10;102468.88;2088579;28;48423;-55
2022/01/19 01:07:52;;;;;;;;;23.00;21.00;;;;;9.39;59.15;102473.28;2088523;28;47412;-55
2022/01/19 01:08:53;;;;;;;;;26.75;25.75;;;;;9.38;59.21;102461.78;2088508;28;48219;-56
2022/01/19 01:09:54;;;;;;;;;23.50;21.50;;;;;9.39;59.48;102467.97;2088527;28;45422;-56
2022/01/19 01:10:55;;;;;;;;;25.00;24.00;;;;;9.39;59.25;102460.91;2088418;28;45602;-54
2022/01/19 01:13:17;;;;;;;;;23.40;22.00;;;;;9.39;59.42;102455.59;2088309;28;48739;-54
2022/01/19 01:17:09;;;;;;;;;26.60;25.00;;;;;9.40;59.16;102445.91;2088657;28;48438;-54
2022/01/19 01:18:20;;;;;;;;;22.20;21.20;;;;;9.39;59.48;102437.06;2088314;28;48207;-55
2022/01/19 01:19:20;;;;;;;;;25.00;23.00;;;;;9.40;59.21;102441.53;2088423;28;47401;-56
2022/01/19 01:20:21;;;;;;;;;23.75;22.75;;;;;9.39;59.33;102436.19;2088474;28;47181;-56
2022/01/19 01:21:21;;;;;;;;;23.00;18.75;;;;;9.41;59.30;102442.41;2088027;28;46210;-57
2022/01/19 01:22:22;;;;;;;;;21.75;20.50;;;;;9.40;59.23;102432.66;2086179;28;46133;-55
2022/01/19 01:23:26;;;;;;;;;22.25;22.25;;;;;9.40;59.26;102433.56;2087724;28;45439;-56
2022/01/19 01:24:26;;;;;;;;;4.00;4.00;;;;;9.39;59.16;102426.47;2088437;28;47367;-57
2022/01/19 01:25:27;;;;;;;;;24.00;24.00;;;;;9.40;59.03;102422.97;2088330;28;48090;-56
2022/01/19 01:26:27;;;;;;;;;29.50;24.25;;;;;9.41;59.31;102426.50;2088470;28;48224;-59
2022/01/19 01:27:27;;;;;;;;;25.75;23.25;;;;;9.40;59.36;102422.97;2088371;28;48212;-54
2022/01/19 01:28:28;;;;;;;;;25.75;23.00;;;;;9.41;59.09;102426.50;2088629;28;48182;-54
2022/01/19 01:29:28;;;;;;;;;23.00;23.00;;;;;9.41;59.12;102435.34;2088231;28;48051;-58
2022/01/19 01:30:29;;;;;;;;;21.25;20.75;;;;;9.41;59.22;102438.00;2088458;28;47191;-55
2022/01/19 01:31:29;;;;;;;;;22.25;22.00;;;;;9.40;59.24;102436.22;2088302;28;47062;-53
2022/01/19 01:32:29;;;;;;;;;23.25;23.25;;;;;9.41;59.30;102448.59;2086884;28;47015;-55
2022/01/19 01:33:30;;;;;;;;;24.00;23.25;;;;;9.41;59.31;102445.94;2088289;28;48271;-57
2022/01/19 01:34:30;;;;;;;;;23.00;21.00;;;;;9.41;59.24;102451.25;2088418;28;46188;-56
2022/01/19 01:35:31;;;;;;;;;26.50;23.75;;;;;9.41;59.36;102445.94;2088575;28;48311;-55
2022/01/19 01:36:32;;;;;;;;;28.60;22.80;;;;;9.41;59.25;102447.72;2088421;28;48153;-54
2022/01/19 01:37:32;;;;;;;;;24.50;24.00;;;;;9.42;59.14;102452.13;2079284;28;46242;-54
2022/01/19 01:38:33;;;;;;;;;26.00;25.50;;;;;9.41;59.26;102453.91;2079489;28;48475;-54
2022/01/19 01:39:33;;;;;;;;;28.25;25.00;;;;;9.42;59.26;102446.84;2088318;28;48133;-56
2022/01/19 01:40:35;;;;;;;;;26.00;25.50;;;;;9.42;59.30;102454.78;2088514;28;47211;-56
2022/01/19 01:41:36;;;;;;;;;24.00;22.20;;;;;9.41;59.36;102456.53;2088607;28;48070;-55
2022/01/19 01:42:36;;;;;;;;;16.75;15.50;;;;;9.41;59.17;102453.00;2088632;28;47391;-54
2022/01/19 01:43:37;;;;;;;;;23.00;22.75;;;;;9.41;59.14;102456.53;2088240;28;47157;-56
2022/01/19 01:44:39;;;;;;;;;26.25;24.50;;;;;9.41;59.17;102450.34;2088285;28;47704;-57
2022/01/19 01:45:43;;;;;;;;;17.20;17.00;;;;;9.41;59.07;102450.34;2088084;28;48295;-56
2022/01/19 01:46:48;;;;;;;;;25.80;25.80;;;;;9.41;59.05;102442.41;2088203;28;46339;-54
2022/01/19 01:47:55;;;;;;;;;29.40;23.80;;;;;9.40;59.04;102441.53;2088103;28;47967;-54
2022/01/19 01:48:55;;;;;;;;;29.80;28.80;;;;;9.41;59.06;102448.59;2079286;28;48110;-57
2022/01/19 01:53:37;;;;;;;;;22.00;21.20;;;;;9.40;59.08;102435.31;2088405;28;47343;-55
2022/01/19 01:54:40;;;;;;;;;27.00;25.20;;;;;9.40;59.06;102435.31;2088332;28;48363;-55
2022/01/19 01:55:40;;;;;;;;;24.80;24.00;;;;;9.37;59.13;102433.50;2088230;28;47029;-55
2022/01/19 01:56:41;;;;;;;;;27.75;22.75;;;;;9.40;59.18;102433.56;2088151;28;47350;-55
2022/01/19 01:57:42;;;;;;;;;24.50;24.50;;;;;9.40;59.14;102432.66;2088418;28;47104;-53
2022/01/19 01:58:46;;;;;;;;;23.20;22.60;;;;;9.40;59.09;102430.00;2088088;28;48190;-56
2022/01/19 01:59:47;;;;;;;;;29.20;27.20;;;;;9.40;59.15;102427.34;2087927;28;47514;-55
2022/01/19 02:00:47;;;;;;;;;24.25;23.50;;;;;9.39;59.05;102421.16;2088394;28;47071;-55
2022/01/19 02:01:47;;;;;;;;;24.50;21.75;;;;;9.41;59.29;102424.75;2089763;28;45983;-54
2022/01/19 02:02:48;;;;;;;;;22.75;20.00;;;;;9.42;59.08;102420.34;2089621;28;48249;-55
2022/01/19 02:03:49;;;;;;;;;23.50;21.25;;;;;9.41;59.15;102415.91;2080686;28;47745;-54
2022/01/19 02:04:49;;;;;;;;;27.25;24.75;;;;;9.41;58.95;102402.66;2080591;28;47964;-54
2022/01/19 02:07:43;;;;;;;;;26.80;24.40;;;;;9.42;58.90;102404.44;2089791;28;47202;-56
2022/01/19 02:08:35;;;;;;;;;25.60;23.20;;;;;9.40;59.01;102404.44;2087306;28;47311;-54
2022/01/19 02:09:39;;;;;;;;;27.00;23.80;;;;;9.41;58.85;102410.63;2089725;28;47988;-56
2022/01/19 02:11:00;;;;;;;;;24.80;21.60;;;;;9.39;58.91;102402.63;2088187;28;48188;-55
2022/01/19 02:22:14;;;;;;;;;17.40;16.80;;;;;9.39;58.71;102381.41;2085611;28;47121;-53
2022/01/19 02:23:25;;;;;;;;;25.75;23.50;;;;;9.39;58.89;102381.41;2087894;28;47305;-56
2022/01/19 02:24:32;;;;;;;;;22.20;20.60;;;;;9.40;58.67;102383.22;2089642;28;47422;-55
2022/01/19 02:25:39;;;;;;;;;20.00;18.60;;;;;9.40;58.81;102372.63;2089489;28;48388;-55
2022/01/19 02:31:48;;;;;;;;;23.75;23.75;;;;;9.41;58.77;102352.31;2089595;28;48657;-55
2022/01/19 02:40:31;;;;;;;;;23.80;22.40;;;;;9.37;58.39;102338.13;2089593;28;47549;-56
2022/01/19 02:41:33;;;;;;;;;24.80;22.00;;;;;9.37;58.38;102331.94;2089590;28;47255;-56
2022/01/19 02:43:22;;;;;;;;;21.60;20.40;;;;;9.36;58.59;102328.41;2089553;28;47176;-55
2022/01/19 02:43:57;;;;;;;;;24.60;24.60;;;;;9.37;58.26;102324.00;2081879;28;47813;-56
2022/01/19 02:49:36;;;;;;;;;25.80;25.80;;;;;9.36;58.40;102317.81;2089485;28;48335;-55
2022/01/19 02:50:37;;;;;;;;;25.50;25.00;;;;;9.37;58.57;102313.41;2089360;28;46775;-54
2022/01/19 02:51:38;;;;;;;;;23.80;22.40;;;;;9.37;58.59;102310.75;2089452;28;46822;-54
2022/01/19 02:52:38;;;;;;;;;27.00;25.50;;;;;9.36;58.76;102309.84;2089341;28;48047;-55
2022/01/19 02:53:38;;;;;;;;;25.75;25.50;;;;;9.35;58.56;102316.03;2089528;28;48324;-55
2022/01/19 02:54:39;;;;;;;;;26.75;25.50;;;;;9.36;58.39;102311.63;2089514;28;46997;-54
2022/01/19 02:55:40;;;;;;;;;24.50;24.00;;;;;9.35;58.55;102310.75;2089414;28;48218;-56
2022/01/19 02:56:43;;;;;;;;;29.25;27.25;;;;;9.36;58.68;102307.22;2089353;28;48356;-55
2022/01/19 02:57:46;;;;;;;;;26.00;24.20;;;;;9.35;58.42;102309.84;2089518;28;47358;-54
2022/01/19 02:58:52;;;;;;;;;26.20;25.40;;;;;9.34;58.61;102300.13;2089461;28;45380;-55
2022/01/19 03:08:53;;;;;;;;;22.80;22.40;;;;;9.32;58.73;102296.59;2089286;28;47227;-56
2022/01/19 03:09:54;;;;;;;;;25.60;21.00;;;;;9.31;58.69;102298.34;2089256;28;47223;-55
2022/01/19 03:10:54;;;;;;;;;26.75;23.50;;;;;9.32;58.54;102293.94;2089178;28;47977;-57
2022/01/19 03:11:55;;;;;;;;;25.00;23.25;;;;;9.32;58.82;102297.47;2089307;28;47142;-54
2022/01/19 03:12:56;;;;;;;;;25.00;25.00;;;;;9.32;58.63;102296.59;2089227;28;48367;-55
2022/01/19 03:13:56;;;;;;;;;30.00;26.75;;;;;9.32;58.72;102294.81;2089231;28;47467;-56
2022/01/19 03:14:57;;;;;;;;;26.00;26.00;;;;;9.32;58.63;102301.88;2089026;28;48232;-56
2022/01/19 03:15:57;;;;;;;;;25.25;23.50;;;;;9.32;58.67;102293.94;2089084;28;45970;-54
2022/01/19 03:16:57;;;;;;;;;22.00;22.00;;;;;9.32;58.54;102293.94;2089199;28;48104;-53
2022/01/19 03:17:59;;;;;;;;;29.00;25.50;;;;;9.31;58.40;102298.34;2088462;28;46978;-55
2022/01/19 03:19:00;;;;;;;;;22.40;22.20;;;;;9.31;58.63;102295.69;2087974;28;47923;-55
2022/01/19 03:20:00;;;;;;;;;27.50;24.00;;;;;9.29;58.65;102292.16;2081150;28;47061;-56
2022/01/19 03:21:01;;;;;;;;;26.00;25.00;;;;;9.30;58.74;102293.03;2080903;28;47364;-55
2022/01/19 03:22:02;;;;;;;;;24.00;23.25;;;;;9.30;58.75;102293.03;2080903;28;47091;-54
2022/01/19 03:23:03;;;;;;;;;26.50;24.50;;;;;9.30;58.82;102293.94;2085575;28;48154;-53
2022/01/19 03:24:05;;;;;;;;;25.20;22.40;;;;;9.30;58.56;102288.63;2088993;28;47481;-54
2022/01/19 03:25:12;;;;;;;;;27.80;25.80;;;;;9.31;58.65;102290.41;2089305;28;48089;-55
2022/01/19 03:26:12;;;;;;;;;24.00;22.60;;;;;9.32;58.63;102283.34;2089130;28;47361;-54
2022/01/19 03:27:13;;;;;;;;;26.50;24.50;;;;;9.32;58.57;102286.00;2089389;28;48208;-54
2022/01/19 03:28:14;;;;;;;;;25.50;24.25;;;;;9.32;58.60;102292.19;2089284;28;48048;-55
2022/01/19 03:29:16;;;;;;;;;24.60;23.40;;;;;9.32;58.61;102280.69;2088726;28;48082;-55
2022/01/19 03:30:18;;;;;;;;;30.00;25.60;;;;;9.31;58.58;102285.09;2088157;28;47833;-53
2022/01/19 03:31:19;;;;;;;;;25.40;24.40;;;;;9.32;58.67;102283.34;2080896;28;47257;-55
2022/01/19 03:32:19;;;;;;;;;26.50;24.50;;;;;9.32;58.75;102278.03;2080717;28;47511;-56
2022/01/19 03:33:20;;;;;;;;;29.25;24.00;;;;;9.31;58.68;102284.22;2080854;28;48137;-53
2022/01/19 03:34:21;;;;;;;;;24.00;24.00;;;;;9.29;58.56;102284.22;2080732;28;47648;-53
2022/01/19 03:35:21;;;;;;;;;25.75;23.25;;;;;9.29;58.69;102289.50;2080787;28;47313;-54
2022/01/19 03:36:21;;;;;;;;;27.25;23.50;;;;;9.29;58.75;102281.56;2080838;28;47565;-53
2022/01/19 03:37:22;;;;;;;;;27.75;25.50;;;;;9.30;58.66;102287.75;2080736;28;47218;-54
2022/01/19 03:38:22;;;;;;;;;28.00;26.50;;;;;9.29;59.04;102276.25;2080646;28;48475;-55
2022/01/19 03:39:23;;;;;;;;;25.00;24.75;;;;;9.29;58.74;102276.25;2080851;28;48103;-54
2022/01/19 03:40:24;;;;;;;;;26.00;26.00;;;;;9.30;58.79;102282.44;2080833;28;46164;-55
2022/01/19 03:41:25;;;;;;;;;29.25;26.25;;;;;9.30;58.79;102282.44;2080928;28;47192;-55
2022/01/19 03:42:25;;;;;;;;;23.00;23.00;;;;;9.31;58.68;102281.56;2080811;28;47115;-53
2022/01/19 03:43:25;;;;;;;;;27.50;23.75;;;;;9.30;59.10;102280.69;2084153;28;47755;-55
2022/01/19 03:44:26;;;;;;;;;27.75;24.25;;;;;9.30;58.65;102279.78;2088753;28;48240;-55
2022/01/19 03:45:27;;;;;;;;;35.20;32.80;;;;;9.30;58.62;102282.44;2088950;28;47565;-53
2022/01/19 03:46:33;;;;;;;;;27.50;24.25;;;;;9.29;58.58;102278.91;2089004;28;48067;-54
2022/01/19 03:47:50;;;;;;;;;23.60;22.00;;;;;9.30;58.64;102274.50;2089216;28;46078;-54
2022/01/19 03:48:55;;;;;;;;;23.60;23.20;;;;;9.29;58.69;102275.38;2089020;28;47388;-55
2022/01/19 03:49:55;;;;;;;;;27.80;24.60;;;;;9.28;58.42;102270.94;2088418;28;47321;-56
2022/01/19 03:50:56;;;;;;;;;28.75;27.25;;;;;9.29;58.85;102272.72;2080795;28;48112;-56
2022/01/19 03:51:58;;;;;;;;;28.75;24.25;;;;;9.28;58.67;102265.66;2080854;28;47270;-56
2022/01/19 03:53:00;;;;;;;;;27.60;25.40;;;;;9.28;58.59;102268.31;2080864;28;47533;-55
2022/01/19 03:54:00;;;;;;;;;22.80;22.00;;;;;9.28;58.30;102268.31;2080914;28;47301;-55
2022/01/19 03:55:01;;;;;;;;;25.00;25.00;;;;;9.28;58.62;102270.94;2080865;28;46065;-53
2022/01/19 03:56:03;;;;;;;;;27.60;26.60;;;;;9.29;58.34;102264.78;2081040;28;47193;-53
2022/01/19 03:57:04;;;;;;;;;26.40;26.40;;;;;9.28;58.42;102266.53;2080835;28;47281;-56
2022/01/19 03:58:04;;;;;;;;;26.00;23.60;;;;;9.27;58.37;102263.84;2080915;28;47452;-56
2022/01/19 03:59:05;;;;;;;;;25.75;25.00;;;;;9.28;58.37;102268.31;2087365;28;46818;-56
2022/01/19 04:00:08;;;;;;;;;26.50;24.75;;;;;9.28;58.51;102263.00;2091781;28;47471;-55
2022/01/19 04:01:09;;;;;;;;;27.20;26.40;;;;;9.28;58.45;102260.34;2095297;28;47405;-57
2022/01/19 04:02:10;;;;;;;;;26.80;26.80;;;;;9.29;58.35;102275.38;2086620;28;48542;-54
2022/01/19 04:03:14;;;;;;;;;24.50;23.75;;;;;9.29;58.30;102259.47;2087000;28;47723;-55
2022/01/19 04:05:53;;;;;;;;;22.80;22.80;;;;;9.27;58.33;102259.44;2087071;28;47205;-56
2022/01/19 04:06:58;;;;;;;;;32.20;29.20;;;;;9.29;58.45;102260.38;2093689;28;47486;-57
2022/01/19 04:07:58;;;;;;;;;23.20;21.80;;;;;9.28;58.13;102255.06;2095838;28;47621;-54
2022/01/19 04:08:59;;;;;;;;;23.75;23.75;;;;;9.28;58.31;102253.28;2096046;28;47258;-54
2022/01/19 04:09:59;;;;;;;;;24.75;24.25;;;;;9.29;58.05;102256.84;2095492;28;48201;-54
2022/01/19 04:11:00;;;;;;;;;23.00;21.00;;;;;9.29;58.21;102254.19;2095125;28;47642;-54
2022/01/19 04:12:01;;;;;;;;;26.25;25.25;;;;;9.30;58.09;102256.84;2089394;28;47304;-54
2022/01/19 04:13:12;;;;;;;;;28.00;25.00;;;;;9.30;58.12;102242.72;2095964;28;47315;-57
2022/01/19 04:14:21;;;;;;;;;27.20;26.20;;;;;9.29;57.98;102247.13;2095060;28;47640;-55
2022/01/19 04:15:23;;;;;;;;;28.60;25.80;;;;;9.29;57.99;102241.81;2095333;28;47899;-56
2022/01/19 04:16:23;;;;;;;;;25.20;23.20;;;;;9.28;58.25;102233.88;2095104;28;47927;-54
2022/01/19 04:17:24;;;;;;;;;22.50;22.00;;;;;9.29;58.05;102241.81;2094971;28;47467;-53
2022/01/19 04:18:25;;;;;;;;;27.00;27.00;;;;;9.28;58.09;102242.69;2094449;28;45671;-55
2022/01/19 04:19:29;;;;;;;;;25.25;23.25;;;;;9.30;58.05;102242.72;2095021;28;47198;-55
2022/01/19 04:20:33;;;;;;;;;31.40;29.40;;;;;9.30;58.06;102240.06;2095475;28;47092;-55
2022/01/19 04:21:34;;;;;;;;;24.00;23.00;;;;;9.29;57.91;102247.13;2095994;28;48353;-55
2022/01/19 04:22:35;;;;;;;;;30.00;27.50;;;;;9.29;57.89;102249.75;2095555;28;47188;-56
2022/01/19 04:23:35;;;;;;;;;23.40;23.40;;;;;9.29;58.20;102240.94;2095373;28;47622;-57
2022/01/19 04:24:37;;;;;;;;;26.50;26.50;;;;;9.28;57.98;102255.06;2094891;28;47368;-55
2022/01/19 04:25:37;;;;;;;;;27.40;25.40;;;;;9.28;58.09;102245.34;2093227;28;47807;-57
2022/01/19 04:26:37;;;;;;;;;25.75;25.25;;;;;9.30;58.00;102245.34;2086800;28;47194;-57
2022/01/19 04:27:41;;;;;;;;;25.25;24.25;;;;;9.30;58.16;102248.00;2087146;28;47466;-58
2022/01/19 04:28:41;;;;;;;;;22.40;22.40;;;;;9.30;58.20;102248.91;2103431;28;47609;-56
2022/01/19 04:31:03;;;;;;;;;32.80;27.80;;;;;9.30;58.15;102248.91;2086168;28;45299;-58
2022/01/19 04:32:10;;;;;;;;;29.00;27.50;;;;;9.30;57.90;102248.00;2086419;28;48089;-56
2022/01/19 04:33:16;;;;;;;;;27.20;26.60;;;;;9.30;58.25;102245.34;2092973;28;47458;-56
2022/01/19 04:34:18;;;;;;;;;25.40;23.40;;;;;9.30;58.05;102246.25;2095753;28;47868;-53
2022/01/19 04:35:25;;;;;;;;;26.80;25.60;;;;;9.31;58.19;102249.78;2095636;28;47738;-57
2022/01/19 04:36:47;;;;;;;;;30.40;30.40;;;;;9.31;58.17;102252.44;2095377;28;47403;-54
2022/01/19 04:44:29;;;;;;;;;30.60;27.60;;;;;9.32;58.33;102251.56;2095698;28;47233;-55
2022/01/19 04:46:26;;;;;;;;;21.80;21.60;;;;;9.31;57.90;102250.66;2095458;28;47674;-53
2022/01/19 04:48:22;;;;;;;;;25.20;24.20;;;;;9.32;57.91;102247.13;2095891;28;47407;-56
2022/01/19 05:01:32;;;;;;;;;24.60;22.20;;;;;9.33;58.08;102256.84;2094987;28;47491;-56
2022/01/19 05:01:47;;;;;;;;;28.20;25.00;;;;;9.32;58.06;102249.78;2077927;28;47157;-56
2022/01/19 05:03:58;;;;;;;;;26.00;24.75;;;;;9.32;57.94;102248.91;2088530;28;47967;-55
2022/01/19 05:06:15;;;;;;;;;28.00;27.60;;;;;9.31;57.92;102247.13;2088609;28;46935;-54
2022/01/19 05:07:23;;;;;;;;;28.40;28.00;;;;;9.32;57.86;102243.59;2088273;28;47524;-57
2022/01/19 05:14:17;;;;;;;;;30.20;25.00;;;;;9.35;58.04;102240.97;2086086;28;47310;-54
2022/01/19 05:15:19;;;;;;;;;29.25;26.00;;;;;9.35;57.93;102244.50;2088471;28;48033;-55
2022/01/19 05:16:20;;;;;;;;;28.40;26.60;;;;;9.35;58.12;102239.19;2088733;28;48272;-55
2022/01/19 05:17:21;;;;;;;;;25.80;25.80;;;;;9.35;57.82;102239.19;2088546;28;48365;-54
2022/01/19 05:18:21;;;;;;;;;24.50;22.25;;;;;9.36;58.34;102238.31;2079473;28;46691;-54
2022/01/19 05:19:21;;;;;;;;;30.25;27.50;;;;;9.36;58.07;102235.69;2079234;28;47456;-55
2022/01/19 05:20:22;;;;;;;;;26.50;26.50;;;;;9.36;57.95;102235.69;2088317;28;47279;-55
2022/01/19 05:21:22;;;;;;;;;32.00;27.75;;;;;9.36;57.98;102237.44;2088594;28;47221;-56
2022/01/19 05:22:23;;;;;;;;;27.00;27.00;;;;;9.37;58.15;102229.50;2088545;28;48396;-55
2022/01/19 05:23:23;;;;;;;;;32.75;28.00;;;;;9.39;58.00;102234.81;2088285;28;47175;-55
2022/01/19 05:24:24;;;;;;;;;30.50;30.50;;;;;9.39;57.89;102235.69;2088482;28;48089;-57
2022/01/19 05:25:24;;;;;;;;;29.75;28.25;;;;;9.40;58.07;102236.56;2088318;28;47366;-57
2022/01/19 05:26:24;;;;;;;;;26.00;24.50;;;;;9.40;58.14;102232.19;2088431;28;47380;-55
2022/01/19 05:27:25;;;;;;;;;25.50;24.25;;;;;9.41;58.17;102241.91;2088344;28;47163;-58
2022/01/19 05:28:25;;;;;;;;;25.25;23.75;;;;;9.40;58.15;102234.84;2088577;28;47174;-56
2022/01/19 05:29:26;;;;;;;;;27.00;24.75;;;;;9.41;58.23;102235.72;2088224;28;48053;-56
2022/01/19 05:30:26;;;;;;;;;28.25;27.25;;;;;9.42;58.26;102230.44;2088081;28;47010;-55
2022/01/19 05:31:27;;;;;;;;;32.50;31.00;;;;;9.42;57.82;102234.84;2088337;28;47185;-54
2022/01/19 05:32:27;;;;;;;;;28.50;27.25;;;;;9.44;58.19;102238.41;2088329;28;47846;-57
2022/01/19 05:33:27;;;;;;;;;30.75;28.75;;;;;9.43;58.23;102232.22;2088208;28;48031;-55
2022/01/19 05:34:28;;;;;;;;;26.50;24.00;;;;;9.44;58.11;102230.44;2088580;28;48561;-54
2022/01/19 05:35:30;;;;;;;;;26.25;24.50;;;;;9.44;58.14;102233.97;2087564;28;47521;-56
2022/01/19 05:36:30;;;;;;;;;25.20;24.80;;;;;9.45;58.08;102229.56;2088232;28;45837;-55
2022/01/19 05:37:36;;;;;;;;;28.25;25.25;;;;;9.46;58.26;102230.44;2088036;28;47688;-54
2022/01/19 05:38:36;;;;;;;;;27.20;27.00;;;;;9.47;58.44;102232.22;2081321;28;48233;-55
2022/01/19 05:39:37;;;;;;;;;28.50;27.25;;;;;9.48;58.22;102234.00;2079934;28;47542;-55
2022/01/19 05:40:38;;;;;;;;;24.50;24.00;;;;;9.48;58.32;102236.66;2079937;28;47260;-57
2022/01/19 05:41:38;;;;;;;;;25.00;25.00;;;;;9.49;58.35;102235.75;2085571;28;46892;-56
2022/01/19 05:42:38;;;;;;;;;26.25;23.50;;;;;9.49;58.49;102231.34;2088520;28;47320;-57
2022/01/19 05:43:39;;;;;;;;;25.25;22.00;;;;;9.50;58.29;102238.41;2088343;28;47116;-54
2022/01/19 05:44:44;;;;;;;;;24.50;23.00;;;;;9.51;58.40;102236.66;2087899;28;48354;-57
2022/01/19 05:45:44;;;;;;;;;27.40;25.40;;;;;9.51;58.37;102231.34;2088225;28;47656;-55
2022/01/19 05:46:45;;;;;;;;;24.50;23.25;;;;;9.51;58.38;102234.00;2088281;28;47327;-56
2022/01/19 05:47:45;;;;;;;;;28.25;25.25;;;;;9.51;58.14;102232.25;2088339;28;46923;-54
2022/01/19 05:48:46;;;;;;;;;26.50;25.75;;;;;9.51;58.48;102239.31;2088604;28;47130;-55
2022/01/19 05:49:46;;;;;;;;;30.50;27.75;;;;;9.51;58.24;102248.16;2088149;28;47314;-56
2022/01/19 05:50:47;;;;;;;;;26.75;24.50;;;;;9.52;58.49;102241.06;2088198;28;48150;-55
2022/01/19 05:51:48;;;;;;;;;27.00;25.75;;;;;9.52;58.42;102239.31;2088343;28;47923;-55
2022/01/19 05:52:48;;;;;;;;;23.50;23.50;;;;;9.52;58.33;102238.44;2088302;28;47449;-55
2022/01/19 05:53:49;;;;;;;;;25.50;22.50;;;;;9.52;58.51;102238.44;2088239;28;47119;-56
2022/01/19 05:54:49;;;;;;;;;25.25;25.25;;;;;9.53;58.56;102237.56;2079431;28;48171;-55
2022/01/19 05:55:50;;;;;;;;;28.00;25.50;;;;;9.53;58.29;102242.84;2079335;28;47431;-57
2022/01/19 05:56:52;;;;;;;;;24.25;24.25;;;;;9.52;58.45;102236.66;2088296;28;48196;-56
2022/01/19 05:57:53;;;;;;;;;28.60;27.20;;;;;9.52;58.59;102238.44;2088071;28;48428;-55
2022/01/19 05:58:53;;;;;;;;;24.50;23.50;;;;;9.51;58.37;102237.53;2088219;28;47352;-54
2022/01/19 05:59:53;;;;;;;;;18.75;18.75;;;;;9.52;58.64;102244.63;2087874;28;47697;-54
2022/01/19 06:00:54;;;;;;;;;25.00;23.50;;;;;9.53;58.54;102240.19;2086116;28;47351;-54